sensor_id;sensor_type;location;lat;lon;timestamp;pressure;altitude;pressure_sealevel;temperature;humidity
60019;BME280;45870;42.528;26.740;2023-06-04T00:01:34;99790.28;;;25.57;44.96
60019;BME280;45870;42.528;26.740;2023-06-04T00:04:00;99795.06;;;24.27;48.18
60019;BME280;45870;42.528;26.740;2023-06-04T00:06:25;99792.03;;;24.80;46.94
60019;BME280;45870;42.528;26.740;2023-06-04T00:08:51;99785.59;;;24.11;49.06
60019;BME280;45870;42.528;26.740;2023-06-04T00:11:17;99801.09;;;23.90;49.63
60019;BME280;45870;42.528;26.740;2023-06-04T00:13:42;99798.09;;;24.17;48.99
60019;BME280;45870;42.528;26.740;2023-06-04T00:16:08;99797.53;;;23.89;50.01
60019;BME280;45870;42.528;26.740;2023-06-04T00:18:34;99807.72;;;24.28;48.75
60019;BME280;45870;42.528;26.740;2023-06-04T00:20:59;99803.38;;;24.70;47.62
60019;BME280;45870;42.528;26.740;2023-06-04T00:23:25;99807.25;;;24.78;47.55
60019;BME280;45870;42.528;26.740;2023-06-04T00:25:51;99801.75;;;24.78;47.43
60019;BME280;45870;42.528;26.740;2023-06-04T00:28:16;99754.66;;;24.40;47.84
60019;BME280;45870;42.528;26.740;2023-06-04T00:30:42;99805.97;;;24.67;48.13
60019;BME280;45870;42.528;26.740;2023-06-04T00:33:08;99806.28;;;24.57;48.21
60019;BME280;45870;42.528;26.740;2023-06-04T00:35:33;99808.03;;;24.35;48.91
60019;BME280;45870;42.528;26.740;2023-06-04T00:37:59;99752.22;;;24.47;47.74
60019;BME280;45870;42.528;26.740;2023-06-04T00:40:25;99815.06;;;23.94;50.23
60019;BME280;45870;42.528;26.740;2023-06-04T00:42:50;99797.53;;;25.06;47.01
60019;BME280;45870;42.528;26.740;2023-06-04T00:45:17;99808.34;;;25.46;46.28
60019;BME280;45870;42.528;26.740;2023-06-04T00:47:46;99810.00;;;25.84;45.34
60019;BME280;45870;42.528;26.740;2023-06-04T00:50:12;99816.59;;;25.63;45.78
60019;BME280;45870;42.528;26.740;2023-06-04T00:52:38;99812.53;;;25.98;44.90
60019;BME280;45870;42.528;26.740;2023-06-04T00:55:04;99820.22;;;26.51;43.52
60019;BME280;45870;42.528;26.740;2023-06-04T00:57:30;99814.47;;;26.36;43.95
60019;BME280;45870;42.528;26.740;2023-06-04T00:59:56;99817.91;;;26.32;43.90
60019;BME280;45870;42.528;26.740;2023-06-04T01:02:23;99821.97;;;26.35;43.45
60019;BME280;45870;42.528;26.740;2023-06-04T01:05:16;99814.94;;;26.08;44.03
60019;BME280;45870;42.528;26.740;2023-06-04T01:07:45;99814.31;;;26.32;43.83
60019;BME280;45870;42.528;26.740;2023-06-04T01:10:15;99644.38;;;25.33;42.94
60019;BME280;45870;42.528;26.740;2023-06-04T01:12:44;99817.28;;;26.56;42.75
60019;BME280;45870;42.528;26.740;2023-06-04T01:15:10;99809.88;;;26.10;43.21
60019;BME280;45870;42.528;26.740;2023-06-04T01:17:40;99810.78;;;25.56;44.62
60019;BME280;45870;42.528;26.740;2023-06-04T01:23:37;99805.97;;;26.41;42.38
60019;BME280;45870;42.528;26.740;2023-06-04T01:26:09;99752.38;;;26.24;42.39
60019;BME280;45870;42.528;26.740;2023-06-04T01:28:36;99806.13;;;26.44;42.50
60019;BME280;45870;42.528;26.740;2023-06-04T01:31:03;99808.84;;;26.53;42.24
60019;BME280;45870;42.528;26.740;2023-06-04T01:33:33;99810.28;;;26.29;42.96
60019;BME280;45870;42.528;26.740;2023-06-04T01:35:58;99766.28;;;25.78;43.67
60019;BME280;45870;42.528;26.740;2023-06-04T01:38:25;99810.63;;;25.90;44.25
60019;BME280;45870;42.528;26.740;2023-06-04T01:40:51;99822.31;;;26.33;43.57
60019;BME280;45870;42.528;26.740;2023-06-04T01:43:22;99815.78;;;26.38;43.35
60019;BME280;45870;42.528;26.740;2023-06-04T01:45:47;99813.97;;;26.63;42.87
60019;BME280;45870;42.528;26.740;2023-06-04T01:48:13;99812.34;;;26.62;42.86
60019;BME280;45870;42.528;26.740;2023-06-04T01:50:39;99810.28;;;26.71;42.92
60019;BME280;45870;42.528;26.740;2023-06-04T01:53:05;99815.19;;;26.74;42.55
60019;BME280;45870;42.528;26.740;2023-06-04T01:55:31;99825.16;;;26.46;43.17
60019;BME280;45870;42.528;26.740;2023-06-04T01:57:59;99765.22;;;25.62;44.05
60019;BME280;45870;42.528;26.740;2023-06-04T02:00:25;99823.81;;;26.52;42.93
60019;BME280;45870;42.528;26.740;2023-06-04T02:02:51;99826.00;;;26.67;42.88
60019;BME280;45870;42.528;26.740;2023-06-04T02:05:20;99828.16;;;26.03;43.26
60019;BME280;45870;42.528;26.740;2023-06-04T02:07:46;99776.63;;;25.52;44.26
60019;BME280;45870;42.528;26.740;2023-06-04T02:10:15;99833.19;;;26.01;43.86
60019;BME280;45870;42.528;26.740;2023-06-04T02:12:59;99837.84;;;26.47;42.64
60019;BME280;45870;42.528;26.740;2023-06-04T02:15:26;99835.53;;;26.28;42.73
60019;BME280;45870;42.528;26.740;2023-06-04T02:17:56;99807.31;;;26.05;42.55
60019;BME280;45870;42.528;26.740;2023-06-04T02:20:27;99847.06;;;25.92;43.84
60019;BME280;45870;42.528;26.740;2023-06-04T02:22:54;99851.56;;;26.05;43.67
60019;BME280;45870;42.528;26.740;2023-06-04T02:25:22;99851.25;;;26.36;43.39
60019;BME280;45870;42.528;26.740;2023-06-04T02:27:47;99853.44;;;25.03;46.40
60019;BME280;45870;42.528;26.740;2023-06-04T02:30:13;99826.91;;;25.28;45.16
60019;BME280;45870;42.528;26.740;2023-06-04T02:32:40;99861.28;;;25.82;44.35
60019;BME280;45870;42.528;26.740;2023-06-04T02:35:06;99862.41;;;25.81;44.52
60019;BME280;45870;42.528;26.740;2023-06-04T02:37:32;99845.22;;;25.58;44.95
60019;BME280;45870;42.528;26.740;2023-06-04T02:39:58;99859.78;;;25.84;44.69
60019;BME280;45870;42.528;26.740;2023-06-04T02:42:23;99832.81;;;25.01;46.78
60019;BME280;45870;42.528;26.740;2023-06-04T02:44:49;99826.59;;;25.12;46.30
60019;BME280;45870;42.528;26.740;2023-06-04T02:47:15;99873.06;;;26.00;45.26
60019;BME280;45870;42.528;26.740;2023-06-04T02:49:40;99863.28;;;26.02;45.10
60019;BME280;45870;42.528;26.740;2023-06-04T02:52:06;99877.34;;;25.89;45.62
60019;BME280;45870;42.528;26.740;2023-06-04T02:54:32;99833.25;;;25.92;44.80
60019;BME280;45870;42.528;26.740;2023-06-04T02:56:57;99861.34;;;26.03;45.42
60019;BME280;45870;42.528;26.740;2023-06-04T02:59:23;99884.16;;;26.38;44.82
60019;BME280;45870;42.528;26.740;2023-06-04T03:01:49;99901.03;;;26.45;44.39
60019;BME280;45870;42.528;26.740;2023-06-04T03:04:15;99881.59;;;26.83;43.61
60019;BME280;45870;42.528;26.740;2023-06-04T03:06:41;99894.91;;;26.89;43.80
60019;BME280;45870;42.528;26.740;2023-06-04T03:09:11;99895.53;;;26.95;44.41
60019;BME280;45870;42.528;26.740;2023-06-04T03:11:37;99888.41;;;26.85;44.17
60019;BME280;45870;42.528;26.740;2023-06-04T03:14:03;99869.97;;;26.01;45.77
60019;BME280;45870;42.528;26.740;2023-06-04T03:16:29;99900.22;;;26.44;45.29
60019;BME280;45870;42.528;26.740;2023-06-04T03:18:54;99900.78;;;27.29;43.48
60019;BME280;45870;42.528;26.740;2023-06-04T03:21:21;99901.16;;;27.60;42.68
60019;BME280;45870;42.528;26.740;2023-06-04T03:23:47;99901.09;;;27.48;43.21
60019;BME280;45870;42.528;26.740;2023-06-04T03:26:13;99905.28;;;27.54;42.80
60019;BME280;45870;42.528;26.740;2023-06-04T03:28:39;99891.81;;;27.65;42.52
60019;BME280;45870;42.528;26.740;2023-06-04T03:31:05;99907.31;;;27.78;42.89
60019;BME280;45870;42.528;26.740;2023-06-04T03:33:31;99904.69;;;27.94;42.20
60019;BME280;45870;42.528;26.740;2023-06-04T03:35:57;99881.41;;;27.74;42.38
60019;BME280;45870;42.528;26.740;2023-06-04T03:38:25;99907.91;;;28.28;41.62
60019;BME280;45870;42.528;26.740;2023-06-04T03:40:53;99894.81;;;28.41;41.28
60019;BME280;45870;42.528;26.740;2023-06-04T03:43:20;99885.66;;;28.16;41.66
60019;BME280;45870;42.528;26.740;2023-06-04T03:45:46;99905.00;;;28.37;41.35
60019;BME280;45870;42.528;26.740;2023-06-04T03:48:12;99899.25;;;27.19;43.99
60019;BME280;45870;42.528;26.740;2023-06-04T03:50:38;99924.53;;;27.84;43.13
60019;BME280;45870;42.528;26.740;2023-06-04T03:53:03;99907.63;;;27.64;43.40
60019;BME280;45870;42.528;26.740;2023-06-04T03:55:30;99924.59;;;27.96;43.11
60019;BME280;45870;42.528;26.740;2023-06-04T03:57:57;99920.81;;;28.12;42.53
60019;BME280;45870;42.528;26.740;2023-06-04T04:00:23;99934.63;;;26.93;44.69
60019;BME280;45870;42.528;26.740;2023-06-04T04:02:49;99925.06;;;26.23;46.78
60019;BME280;45870;42.528;26.740;2023-06-04T04:05:18;99910.25;;;26.78;45.50
60019;BME280;45870;42.528;26.740;2023-06-04T04:07:44;99933.72;;;26.51;45.84
60019;BME280;45870;42.528;26.740;2023-06-04T04:10:10;99932.09;;;26.79;45.06
60019;BME280;45870;42.528;26.740;2023-06-04T04:12:35;99926.78;;;26.37;46.67
60019;BME280;45870;42.528;26.740;2023-06-04T04:15:01;99923.31;;;25.29;48.53
60019;BME280;45870;42.528;26.740;2023-06-04T04:17:27;99931.06;;;26.63;46.33
60019;BME280;45870;42.528;26.740;2023-06-04T04:19:53;99939.16;;;25.84;47.73
60019;BME280;45870;42.528;26.740;2023-06-04T04:22:18;99943.44;;;25.30;48.76
60019;BME280;45870;42.528;26.740;2023-06-04T04:24:44;99925.97;;;24.69;50.17
60019;BME280;45870;42.528;26.740;2023-06-04T04:27:10;99946.69;;;25.23;49.63
60019;BME280;45870;42.528;26.740;2023-06-04T04:29:41;99937.31;;;26.05;48.15
60019;BME280;45870;42.528;26.740;2023-06-04T04:32:09;99947.97;;;25.17;50.00
60019;BME280;45870;42.528;26.740;2023-06-04T04:34:38;99951.00;;;27.07;45.15
60019;BME280;45870;42.528;26.740;2023-06-04T04:37:05;99942.66;;;26.57;46.64
60019;BME280;45870;42.528;26.740;2023-06-04T04:39:34;99953.69;;;25.64;48.01
60019;BME280;45870;42.528;26.740;2023-06-04T04:42:02;99960.50;;;26.68;46.24
60019;BME280;45870;42.528;26.740;2023-06-04T04:44:28;99962.06;;;26.02;47.79
60019;BME280;45870;42.528;26.740;2023-06-04T04:46:54;99963.81;;;24.77;50.56
60019;BME280;45870;42.528;26.740;2023-06-04T04:49:19;99963.03;;;24.77;49.81
60019;BME280;45870;42.528;26.740;2023-06-04T04:51:46;99964.84;;;25.93;47.33
60019;BME280;45870;42.528;26.740;2023-06-04T04:54:12;99960.50;;;26.68;45.26
60019;BME280;45870;42.528;26.740;2023-06-04T04:56:37;99930.94;;;26.13;46.34
60019;BME280;45870;42.528;26.740;2023-06-04T04:59:03;99955.22;;;24.79;49.44
60019;BME280;45870;42.528;26.740;2023-06-04T05:01:28;99968.94;;;25.44;47.88
60019;BME280;45870;42.528;26.740;2023-06-04T05:03:54;99974.28;;;24.98;49.42
60019;BME280;45870;42.528;26.740;2023-06-04T05:06:20;99979.81;;;25.83;47.06
60019;BME280;45870;42.528;26.740;2023-06-04T05:08:47;99978.84;;;25.19;48.78
60019;BME280;45870;42.528;26.740;2023-06-04T05:11:13;99932.63;;;25.97;45.75
60019;BME280;45870;42.528;26.740;2023-06-04T05:13:38;99978.22;;;25.82;46.61
60019;BME280;45870;42.528;26.740;2023-06-04T05:16:07;99983.25;;;25.12;48.89
60019;BME280;45870;42.528;26.740;2023-06-04T05:18:33;99939.44;;;24.62;49.33
60019;BME280;45870;42.528;26.740;2023-06-04T05:21:00;99932.22;;;25.26;48.03
60019;BME280;45870;42.528;26.740;2023-06-04T05:23:28;99912.25;;;25.29;47.22
60019;BME280;45870;42.528;26.740;2023-06-04T05:25:55;99982.34;;;26.99;43.98
60019;BME280;45870;42.528;26.740;2023-06-04T05:28:21;99924.56;;;26.30;45.38
60019;BME280;45870;42.528;26.740;2023-06-04T05:30:49;99991.50;;;27.41;43.82
60019;BME280;45870;42.528;26.740;2023-06-04T05:33:15;99998.06;;;26.48;44.30
60019;BME280;45870;42.528;26.740;2023-06-04T05:35:46;99941.41;;;24.79;47.08
60019;BME280;45870;42.528;26.740;2023-06-04T05:38:12;100005.75;;;24.40;48.63
60019;BME280;45870;42.528;26.740;2023-06-04T05:40:42;99982.66;;;24.27;49.94
60019;BME280;45870;42.528;26.740;2023-06-04T05:43:08;99946.63;;;24.02;48.73
60019;BME280;45870;42.528;26.740;2023-06-04T05:45:34;99998.16;;;24.94;48.07
60019;BME280;45870;42.528;26.740;2023-06-04T05:47:59;100006.31;;;26.10;45.77
60019;BME280;45870;42.528;26.740;2023-06-04T05:50:25;100001.91;;;26.09;45.46
60019;BME280;45870;42.528;26.740;2023-06-04T05:52:51;100010.78;;;25.68;44.81
60019;BME280;45870;42.528;26.740;2023-06-04T05:55:16;99943.75;;;25.37;45.35
60019;BME280;45870;42.528;26.740;2023-06-04T05:57:42;100015.31;;;24.82;47.78
60019;BME280;45870;42.528;26.740;2023-06-04T06:00:08;100007.22;;;24.85;47.58
60019;BME280;45870;42.528;26.740;2023-06-04T06:02:35;100011.41;;;25.57;45.57
60019;BME280;45870;42.528;26.740;2023-06-04T06:05:01;100007.50;;;24.75;47.15
60019;BME280;45870;42.528;26.740;2023-06-04T06:07:26;100022.25;;;24.31;48.28
60019;BME280;45870;42.528;26.740;2023-06-04T06:09:52;99963.88;;;24.47;46.94
60019;BME280;45870;42.528;26.740;2023-06-04T06:12:18;100012.72;;;25.59;45.21
60019;BME280;45870;42.528;26.740;2023-06-04T06:14:43;100026.16;;;25.26;45.08
60019;BME280;45870;42.528;26.740;2023-06-04T06:17:09;99976.75;;;25.16;46.05
60019;BME280;45870;42.528;26.740;2023-06-04T06:19:36;100012.53;;;25.73;44.81
60019;BME280;45870;42.528;26.740;2023-06-04T06:22:03;100020.94;;;26.11;44.40
60019;BME280;45870;42.528;26.740;2023-06-04T06:24:29;100023.19;;;27.93;40.46
60019;BME280;45870;42.528;26.740;2023-06-04T06:26:55;100031.91;;;28.37;40.35
60019;BME280;45870;42.528;26.740;2023-06-04T06:29:20;100031.16;;;29.33;37.18
60019;BME280;45870;42.528;26.740;2023-06-04T06:31:47;100028.97;;;28.90;38.89
60019;BME280;45870;42.528;26.740;2023-06-04T06:34:12;100003.22;;;28.45;38.77
60019;BME280;45870;42.528;26.740;2023-06-04T06:36:38;100011.25;;;28.13;40.37
60019;BME280;45870;42.528;26.740;2023-06-04T06:39:04;100039.31;;;27.79;40.31
60019;BME280;45870;42.528;26.740;2023-06-04T06:41:30;100039.81;;;28.59;39.18
60019;BME280;45870;42.528;26.740;2023-06-04T06:43:58;100042.38;;;28.19;39.42
60019;BME280;45870;42.528;26.740;2023-06-04T06:46:24;100045.03;;;27.62;40.65
60019;BME280;45870;42.528;26.740;2023-06-04T06:48:50;100040.56;;;26.90;42.31
60019;BME280;45870;42.528;26.740;2023-06-04T06:51:16;100043.19;;;29.37;37.36
60019;BME280;45870;42.528;26.740;2023-06-04T06:53:43;100039.63;;;28.76;38.33
60019;BME280;45870;42.528;26.740;2023-06-04T06:56:13;100012.25;;;29.14;38.24
60019;BME280;45870;42.528;26.740;2023-06-04T06:58:40;99977.19;;;30.49;35.30
60019;BME280;45870;42.528;26.740;2023-06-04T07:01:06;99997.09;;;28.39;38.80
60019;BME280;45870;42.528;26.740;2023-06-04T07:03:32;100039.81;;;28.59;38.09
60019;BME280;45870;42.528;26.740;2023-06-04T07:05:58;100060.81;;;29.29;36.76
60019;BME280;45870;42.528;26.740;2023-06-04T07:08:23;100038.59;;;28.81;37.26
60019;BME280;45870;42.528;26.740;2023-06-04T07:10:49;100021.47;;;29.55;36.02
60019;BME280;45870;42.528;26.740;2023-06-04T07:13:15;100066.94;;;28.86;37.80
60019;BME280;45870;42.528;26.740;2023-06-04T07:15:41;100072.03;;;28.84;37.69
60019;BME280;45870;42.528;26.740;2023-06-04T07:18:07;100076.44;;;28.85;38.84
60019;BME280;45870;42.528;26.740;2023-06-04T07:20:33;100071.97;;;28.15;38.98
60019;BME280;45870;42.528;26.740;2023-06-04T07:22:59;100047.16;;;28.88;37.73
60019;BME280;45870;42.528;26.740;2023-06-04T07:25:24;100041.44;;;29.20;36.88
60019;BME280;45870;42.528;26.740;2023-06-04T07:27:51;100074.34;;;29.43;35.93
60019;BME280;45870;42.528;26.740;2023-06-04T07:30:16;100086.06;;;30.16;35.12
60019;BME280;45870;42.528;26.740;2023-06-04T07:32:47;100079.78;;;28.78;36.94
60019;BME280;45870;42.528;26.740;2023-06-04T07:35:13;100082.88;;;26.99;40.61
60019;BME280;45870;42.528;26.740;2023-06-04T07:37:39;100083.81;;;28.03;38.78
60019;BME280;45870;42.528;26.740;2023-06-04T07:40:05;100086.47;;;28.00;38.82
60019;BME280;45870;42.528;26.740;2023-06-04T07:42:31;100067.22;;;28.15;37.72
60019;BME280;45870;42.528;26.740;2023-06-04T07:44:57;100086.22;;;28.25;38.61
60019;BME280;45870;42.528;26.740;2023-06-04T07:47:23;100085.47;;;29.06;37.12
60019;BME280;45870;42.528;26.740;2023-06-04T07:49:48;100082.13;;;30.45;35.67
60019;BME280;45870;42.528;26.740;2023-06-04T07:52:14;100094.50;;;29.40;36.58
60019;BME280;45870;42.528;26.740;2023-06-04T07:54:40;100094.28;;;28.18;37.70
60019;BME280;45870;42.528;26.740;2023-06-04T07:57:07;100102.47;;;28.36;38.97
60019;BME280;45870;42.528;26.740;2023-06-04T07:59:34;100043.06;;;26.83;38.97
60019;BME280;45870;42.528;26.740;2023-06-04T08:01:59;100091.78;;;27.13;39.24
60019;BME280;45870;42.528;26.740;2023-06-04T08:04:25;99888.88;;;25.91;39.53
60019;BME280;45870;42.528;26.740;2023-06-04T08:06:51;100113.22;;;27.34;38.75
60019;BME280;45870;42.528;26.740;2023-06-04T08:09:17;100113.13;;;27.51;38.14
60019;BME280;45870;42.528;26.740;2023-06-04T08:11:43;100080.53;;;28.22;36.72
60019;BME280;45870;42.528;26.740;2023-06-04T08:14:10;100082.09;;;27.57;37.44
60019;BME280;45870;42.528;26.740;2023-06-04T08:16:36;100104.00;;;28.57;36.46
60019;BME280;45870;42.528;26.740;2023-06-04T08:19:02;100079.75;;;28.21;37.97
60019;BME280;45870;42.528;26.740;2023-06-04T08:21:28;100115.69;;;29.68;36.98
60019;BME280;45870;42.528;26.740;2023-06-04T08:23:54;100098.34;;;29.47;34.73
60019;BME280;45870;42.528;26.740;2023-06-04T08:26:21;100118.94;;;29.22;34.89
60019;BME280;45870;42.528;26.740;2023-06-04T08:28:50;100115.94;;;29.39;34.71
60019;BME280;45870;42.528;26.740;2023-06-04T08:31:16;100113.38;;;28.98;36.45
60019;BME280;45870;42.528;26.740;2023-06-04T08:33:44;100113.97;;;29.27;36.00
60019;BME280;45870;42.528;26.740;2023-06-04T08:36:10;100123.56;;;30.18;33.81
60019;BME280;45870;42.528;26.740;2023-06-04T08:38:36;100128.41;;;31.08;31.35
60019;BME280;45870;42.528;26.740;2023-06-04T08:41:12;100086.31;;;31.13;31.83
60019;BME280;45870;42.528;26.740;2023-06-04T08:43:41;100070.88;;;29.09;35.22
60019;BME280;45870;42.528;26.740;2023-06-04T08:46:09;99970.56;;;31.77;29.99
60019;BME280;45870;42.528;26.740;2023-06-04T08:48:37;100109.47;;;30.86;31.73
60019;BME280;45870;42.528;26.740;2023-06-04T08:51:05;100131.09;;;31.20;31.10
60019;BME280;45870;42.528;26.740;2023-06-04T08:53:32;100098.94;;;31.42;31.03
60019;BME280;45870;42.528;26.740;2023-06-04T08:55:59;100126.41;;;32.10;29.15
60019;BME280;45870;42.528;26.740;2023-06-04T08:58:25;100137.53;;;31.40;30.52
60019;BME280;45870;42.528;26.740;2023-06-04T09:00:51;100137.59;;;31.09;31.49
60019;BME280;45870;42.528;26.740;2023-06-04T09:03:17;100094.13;;;31.24;29.85
60019;BME280;45870;42.528;26.740;2023-06-04T09:05:53;100090.63;;;30.95;30.23
60019;BME280;45870;42.528;26.740;2023-06-04T09:08:26;99992.28;;;31.68;30.34
60019;BME280;45870;42.528;26.740;2023-06-04T09:10:55;100127.03;;;32.03;29.91
60019;BME280;45870;42.528;26.740;2023-06-04T09:13:22;100128.81;;;30.63;31.61
60019;BME280;45870;42.528;26.740;2023-06-04T09:16:02;100131.97;;;31.40;30.74
60019;BME280;45870;42.528;26.740;2023-06-04T09:18:29;100127.69;;;30.24;31.85
60019;BME280;45870;42.528;26.740;2023-06-04T09:21:06;100118.00;;;30.62;32.69
60019;BME280;45870;42.528;26.740;2023-06-04T09:23:35;100125.41;;;32.41;29.69
60019;BME280;45870;42.528;26.740;2023-06-04T09:26:08;100122.19;;;32.39;29.01
60019;BME280;45870;42.528;26.740;2023-06-04T09:28:34;100117.91;;;32.87;29.06
60019;BME280;45870;42.528;26.740;2023-06-04T09:31:00;100108.28;;;31.85;28.56
60019;BME280;45870;42.528;26.740;2023-06-04T09:33:28;100119.22;;;31.24;30.65
60019;BME280;45870;42.528;26.740;2023-06-04T09:35:56;100119.94;;;33.61;27.16
60019;BME280;45870;42.528;26.740;2023-06-04T09:38:22;100089.84;;;31.80;29.47
60019;BME280;45870;42.528;26.740;2023-06-04T09:40:49;100114.63;;;32.20;29.42
60019;BME280;45870;42.528;26.740;2023-06-04T09:43:22;100108.88;;;29.54;33.23
60019;BME280;45870;42.528;26.740;2023-06-04T09:45:51;100126.97;;;30.99;31.37
60019;BME280;45870;42.528;26.740;2023-06-04T09:48:20;100098.41;;;31.37;30.94
60019;BME280;45870;42.528;26.740;2023-06-04T09:50:46;100126.69;;;30.88;31.24
60019;BME280;45870;42.528;26.740;2023-06-04T09:53:17;100120.25;;;30.01;31.00
60019;BME280;45870;42.528;26.740;2023-06-04T09:55:43;100103.53;;;29.61;31.69
60019;BME280;45870;42.528;26.740;2023-06-04T09:58:10;100107.50;;;31.34;29.86
60019;BME280;45870;42.528;26.740;2023-06-04T10:00:37;100112.88;;;32.12;27.85
60019;BME280;45870;42.528;26.740;2023-06-04T10:03:04;100111.16;;;32.65;27.97
60019;BME280;45870;42.528;26.740;2023-06-04T10:05:32;100115.47;;;33.57;27.25
60019;BME280;45870;42.528;26.740;2023-06-04T10:08:03;100123.50;;;32.64;29.61
60019;BME280;45870;42.528;26.740;2023-06-04T10:10:34;100118.09;;;32.75;28.84
60019;BME280;45870;42.528;26.740;2023-06-04T10:13:08;100116.59;;;34.08;26.08
60019;BME280;45870;42.528;26.740;2023-06-04T10:15:36;100118.66;;;31.34;28.83
60019;BME280;45870;42.528;26.740;2023-06-04T10:18:02;100123.69;;;33.46;28.00
60019;BME280;45870;42.528;26.740;2023-06-04T10:20:30;100070.25;;;32.57;28.33
60019;BME280;45870;42.528;26.740;2023-06-04T10:22:56;100119.47;;;31.34;29.71
60019;BME280;45870;42.528;26.740;2023-06-04T10:25:23;100116.69;;;33.07;27.89
60019;BME280;45870;42.528;26.740;2023-06-04T10:27:52;100089.75;;;33.74;26.45
60019;BME280;45870;42.528;26.740;2023-06-04T10:30:18;100125.72;;;35.60;24.37
60019;BME280;45870;42.528;26.740;2023-06-04T10:32:44;100127.22;;;33.66;27.33
60019;BME280;45870;42.528;26.740;2023-06-04T10:35:10;100117.78;;;35.18;23.97
60019;BME280;45870;42.528;26.740;2023-06-04T10:37:36;100089.22;;;32.48;27.40
60019;BME280;45870;42.528;26.740;2023-06-04T10:40:02;100091.06;;;33.05;25.96
60019;BME280;45870;42.528;26.740;2023-06-04T10:42:38;100115.59;;;32.28;27.67
60019;BME280;45870;42.528;26.740;2023-06-04T10:45:05;100114.09;;;32.53;26.63
60019;BME280;45870;42.528;26.740;2023-06-04T10:47:31;100112.13;;;34.34;25.33
60019;BME280;45870;42.528;26.740;2023-06-04T10:50:10;100100.31;;;32.22;28.31
60019;BME280;45870;42.528;26.740;2023-06-04T10:52:37;100105.75;;;30.51;30.50
60019;BME280;45870;42.528;26.740;2023-06-04T10:55:04;100012.13;;;30.03;29.97
60019;BME280;45870;42.528;26.740;2023-06-04T10:57:30;100104.94;;;32.56;27.58
60019;BME280;45870;42.528;26.740;2023-06-04T10:59:58;100096.69;;;32.02;28.34
60019;BME280;45870;42.528;26.740;2023-06-04T11:02:25;100102.69;;;29.60;32.41
60019;BME280;45870;42.528;26.740;2023-06-04T11:05:05;100078.47;;;30.56;30.45
60019;BME280;45870;42.528;26.740;2023-06-04T11:07:47;100096.34;;;31.34;29.80
60019;BME280;45870;42.528;26.740;2023-06-04T11:10:14;100100.09;;;32.53;29.14
60019;BME280;45870;42.528;26.740;2023-06-04T11:12:47;100102.19;;;31.44;30.90
60019;BME280;45870;42.528;26.740;2023-06-04T11:15:14;100106.81;;;31.05;29.52
60019;BME280;45870;42.528;26.740;2023-06-04T11:17:54;100064.59;;;31.73;28.98
60019;BME280;45870;42.528;26.740;2023-06-04T11:20:22;100094.06;;;31.55;28.94
60019;BME280;45870;42.528;26.740;2023-06-04T11:22:56;100106.88;;;30.93;30.09
60019;BME280;45870;42.528;26.740;2023-06-04T11:25:23;100104.00;;;29.39;32.57
60019;BME280;45870;42.528;26.740;2023-06-04T11:27:54;100110.97;;;31.62;28.68
60019;BME280;45870;42.528;26.740;2023-06-04T11:30:21;100113.66;;;31.08;30.71
60019;BME280;45870;42.528;26.740;2023-06-04T11:32:48;100085.53;;;31.32;29.54
60019;BME280;45870;42.528;26.740;2023-06-04T11:35:13;100098.81;;;32.28;28.38
60019;BME280;45870;42.528;26.740;2023-06-04T11:37:40;100097.78;;;33.00;28.60
60019;BME280;45870;42.528;26.740;2023-06-04T11:40:16;100095.94;;;32.43;27.45
60019;BME280;45870;42.528;26.740;2023-06-04T11:42:44;100100.31;;;33.09;25.55
60019;BME280;45870;42.528;26.740;2023-06-04T11:45:12;100104.19;;;30.38;30.87
60019;BME280;45870;42.528;26.740;2023-06-04T11:47:38;100080.72;;;30.66;29.90
60019;BME280;45870;42.528;26.740;2023-06-04T11:50:05;100096.00;;;30.88;29.75
60019;BME280;45870;42.528;26.740;2023-06-04T11:52:31;100093.69;;;32.10;27.33
60019;BME280;45870;42.528;26.740;2023-06-04T11:54:58;100092.06;;;32.71;27.72
60019;BME280;45870;42.528;26.740;2023-06-04T11:57:23;100016.41;;;29.45;30.98
60019;BME280;45870;42.528;26.740;2023-06-04T11:59:52;100082.16;;;31.07;29.28
60019;BME280;45870;42.528;26.740;2023-06-04T12:02:19;100085.94;;;32.42;27.52
60019;BME280;45870;42.528;26.740;2023-06-04T12:04:45;100082.13;;;32.31;28.25
60019;BME280;45870;42.528;26.740;2023-06-04T12:07:10;100092.56;;;30.79;30.09
60019;BME280;45870;42.528;26.740;2023-06-04T12:09:37;100085.03;;;31.27;29.82
60019;BME280;45870;42.528;26.740;2023-06-04T12:12:21;100079.69;;;31.37;29.87
60019;BME280;45870;42.528;26.740;2023-06-04T12:14:47;100094.16;;;31.43;28.65
60019;BME280;45870;42.528;26.740;2023-06-04T12:17:13;100088.91;;;30.32;31.10
60019;BME280;45870;42.528;26.740;2023-06-04T12:19:47;99993.72;;;30.42;29.86
60019;BME280;45870;42.528;26.740;2023-06-04T12:22:13;100086.53;;;30.18;30.89
60019;BME280;45870;42.528;26.740;2023-06-04T12:24:50;100083.06;;;29.81;31.47
60019;BME280;45870;42.528;26.740;2023-06-04T12:27:20;100093.19;;;29.61;31.43
60019;BME280;45870;42.528;26.740;2023-06-04T12:29:59;100090.53;;;30.05;30.88
60019;BME280;45870;42.528;26.740;2023-06-04T12:32:26;100096.25;;;30.52;31.12
60019;BME280;45870;42.528;26.740;2023-06-04T12:34:52;100083.00;;;31.78;28.60
60019;BME280;45870;42.528;26.740;2023-06-04T12:37:18;100084.22;;;32.80;27.21
60019;BME280;45870;42.528;26.740;2023-06-04T12:39:46;100093.81;;;32.79;27.13
60019;BME280;45870;42.528;26.740;2023-06-04T12:42:11;100091.97;;;29.47;32.30
60019;BME280;45870;42.528;26.740;2023-06-04T12:44:38;100091.50;;;30.40;30.26
60019;BME280;45870;42.528;26.740;2023-06-04T12:47:05;100095.09;;;30.53;29.61
60019;BME280;45870;42.528;26.740;2023-06-04T12:49:32;100094.13;;;30.77;29.93